Airfield :
LOGIN :

Register | Disclaimer

   EN    FR    IT 

 










Legend :    VFR   Marginal VFR   IFR   Intensive IFR   Very Intensive IFR
Visi :
Ceiling :
>= 8 km
>= 3000ft
5 to 8 km
1000 to 3000 ft
1500m to 5 km
500 to 1000 ft
800 to 1500m
200 to 500 ft
< 800m
< 200 ft
Symbols :   Thunderstorms  Fog  Heavy snow  Heavy precipitations  Wind > 20 kt
SIGMETs :     Misc.  Thunderstorms  Icing  Turbulence  Mountain Waves  Volcanic Ashes






- Airport Elevation : 42 ft
- IATA code : LMO


EGQS - Lossiemouth

CURRENT METAR :
  • 240350Z 17003KT 9999 SCT042 BKN050 11/07 Q0994 NOSIG RMK BLU BLU

EXPIRED METARs :
  • 240250Z 17007KT 9999 BKN045 10/08 Q0994 NOSIG RMK BLU BLU
  • 240150Z 20010KT 9999 BKN045 12/08 Q0995 NOSIG RMK BLU BLU

TAF TAF EGQS
Valid from the 24 at 03:00 until the 24 at 21:00 UTC


240128Z 2403/2421 19014KT 9999 FEW040
BECMG 2409/2412 24016G26KT
PROB30
TEMPO 2411/2416 7000 SHRA SCT023
BECMG 2412/2415 27018G28KT
BECMG 2418/2421 24015KT



MET'MAP, your aeronautical weather chart ! - Copyright ORBIFLY December 2007 - Disclaimer

ORBIFLY MET'MAP TEAM :

Programming & Development : Alexandra Zaïnal
Concept & Development : Baudouin d'Aumeries
Co-Development & Prog : Marc-Olivier Méhu
Technical & hardware support : Manuel Goepfert

Contact : metmap@orbifly.com




SOURCES & CREDITS :

   NOAA